createdAt,value
2022-10-23T00:00:27.505Z,12.16
2022-10-23T00:05:29.601Z,12.08
2022-10-23T00:10:31.608Z,12.00
2022-10-23T00:15:35.849Z,11.96
2022-10-23T00:20:37.687Z,11.91
2022-10-23T00:25:39.599Z,11.89
2022-10-23T00:30:41.391Z,11.85
2022-10-23T00:35:46.215Z,11.78
2022-10-23T00:45:56.697Z,11.68
2022-10-23T00:50:58.657Z,11.68
2022-10-23T00:56:00.692Z,11.65
2022-10-23T01:01:03.317Z,11.63
2022-10-23T01:06:16.708Z,11.59
2022-10-23T01:11:34.409Z,11.52
2022-10-23T01:17:10.597Z,11.43
2022-10-23T01:22:38.333Z,11.33
2022-10-23T01:27:49.331Z,11.19
2022-10-23T01:32:57.711Z,11.11
2022-10-23T01:38:23.893Z,11.09
2022-10-23T01:43:42.179Z,11.02
2022-10-23T01:48:52.720Z,10.96
2022-10-23T01:53:59.632Z,10.98
2022-10-23T01:59:06.466Z,11.04
2022-10-23T02:04:16.871Z,11.13
2022-10-23T02:09:19.070Z,11.20
2022-10-23T02:14:39.771Z,11.25
2022-10-23T02:20:02.143Z,11.27
2022-10-23T02:25:13.581Z,11.26
2022-10-23T02:30:18.904Z,11.21
2022-10-23T02:35:26.558Z,11.09
2022-10-23T02:40:43.102Z,10.96
2022-10-23T02:46:05.742Z,10.86
2022-10-23T02:51:27.673Z,10.82
2022-10-23T02:56:53.570Z,10.83
2022-10-23T03:02:03.955Z,10.89
2022-10-23T03:07:10.554Z,10.95
2022-10-23T03:12:12.393Z,11.03
2022-10-23T03:17:14.344Z,11.12
2022-10-23T03:22:16.702Z,11.21
2022-10-23T03:27:18.866Z,11.27
2022-10-23T03:32:20.979Z,11.33
2022-10-23T03:37:23.171Z,11.39
2022-10-23T03:42:25.539Z,11.42
2022-10-23T03:47:27.607Z,11.42
2022-10-23T03:52:29.743Z,11.40
2022-10-23T03:57:32.002Z,11.39
2022-10-23T04:02:34.305Z,11.38
2022-10-23T04:07:36.617Z,11.38
2022-10-23T04:12:38.797Z,11.36
2022-10-23T04:17:41.271Z,11.38
2022-10-23T04:22:43.299Z,11.39
2022-10-23T04:27:46.176Z,11.42
2022-10-23T04:32:51.704Z,11.46
2022-10-23T04:37:53.538Z,11.47
2022-10-23T04:42:55.748Z,11.49
2022-10-23T04:47:57.830Z,11.50
2022-10-23T04:53:00.971Z,11.48
2022-10-23T04:58:21.810Z,11.47
2022-10-23T05:03:26.409Z,11.47
2022-10-23T05:08:29.302Z,11.48
2022-10-23T05:13:49.829Z,11.53
2022-10-23T05:18:51.857Z,11.58
2022-10-23T05:23:55.534Z,11.63
2022-10-23T05:28:57.481Z,11.68
2022-10-23T05:34:00.798Z,11.67
2022-10-23T05:39:05.076Z,11.68
2022-10-23T05:44:07.294Z,11.68
2022-10-23T05:49:37.621Z,11.68
2022-10-23T05:55:06.706Z,11.69
2022-10-23T06:00:34.662Z,11.70
2022-10-23T06:05:52.219Z,11.76
2022-10-23T06:11:04.719Z,11.78
2022-10-23T06:16:11.777Z,11.84
2022-10-23T06:21:15.253Z,11.89
2022-10-23T06:26:19.490Z,11.95
2022-10-23T06:31:47.656Z,12.03
2022-10-23T06:36:49.820Z,12.14
2022-10-23T06:42:12.841Z,12.25
2022-10-23T06:47:44.441Z,12.34
2022-10-23T06:53:09.780Z,12.45
2022-10-23T06:58:13.217Z,12.55
2022-10-23T07:03:28.978Z,12.67
2022-10-23T07:08:44.290Z,12.82
2022-10-23T07:14:10.639Z,12.95
2022-10-23T07:19:12.654Z,13.05
2022-10-23T07:24:31.590Z,13.25
2022-10-23T07:29:34.405Z,13.45
2022-10-23T07:34:38.425Z,13.58
2022-10-23T07:39:51.328Z,13.60
2022-10-23T07:44:53.380Z,13.58
2022-10-23T07:49:56.394Z,13.58
2022-10-23T07:54:58.639Z,13.71
2022-10-23T08:00:06.198Z,13.87
2022-10-23T08:05:21.787Z,13.97
2022-10-23T08:10:30.789Z,14.10
2022-10-23T08:15:54.373Z,14.18
2022-10-23T08:21:24.178Z,14.20
2022-10-23T08:26:29.460Z,14.29
2022-10-23T08:31:31.804Z,14.33
2022-10-23T08:36:55.855Z,14.44
2022-10-23T08:41:58.926Z,14.54
2022-10-23T08:47:13.484Z,14.60
2022-10-23T08:53:00.288Z,14.55
2022-10-23T08:58:23.634Z,14.45
2022-10-23T09:03:27.150Z,14.41
2022-10-23T09:08:53.268Z,14.39
2022-10-23T09:14:27.759Z,14.46
2022-10-23T09:19:31.273Z,14.56
2022-10-23T09:24:33.733Z,14.63
2022-10-23T09:29:36.550Z,14.78
2022-10-23T09:35:05.318Z,14.95
2022-10-23T09:40:19.229Z,15.03
2022-10-23T09:45:30.756Z,15.12
2022-10-23T09:50:34.130Z,15.25
2022-10-23T09:55:36.171Z,15.33
2022-10-23T10:00:50.156Z,15.29
2022-10-23T10:06:20.930Z,15.32
2022-10-23T10:11:53.526Z,15.42
2022-10-23T10:17:04.685Z,15.57
2022-10-23T10:22:33.387Z,15.76
2022-10-23T10:28:04.423Z,15.97
2022-10-23T10:33:18.075Z,16.07
2022-10-23T10:38:31.985Z,16.22
2022-10-23T10:43:45.912Z,16.54
2022-10-23T10:48:54.048Z,16.88
2022-10-23T10:54:12.011Z,17.10
2022-10-23T10:59:26.793Z,17.21
2022-10-23T11:04:39.553Z,17.34
2022-10-23T11:09:59.287Z,17.43
2022-10-23T11:15:01.330Z,17.41
2022-10-23T11:20:09.003Z,17.38
2022-10-23T11:25:55.764Z,17.32
2022-10-23T11:31:17.774Z,17.43
2022-10-23T11:36:42.886Z,17.88
2022-10-23T11:41:51.345Z,18.36
2022-10-23T11:47:05.733Z,19.01
2022-10-23T11:52:22.934Z,19.64
2022-10-23T11:57:25.082Z,20.08
2022-10-23T12:02:38.408Z,20.43
2022-10-23T12:07:42.195Z,20.61
2022-10-23T12:12:58.566Z,20.62
2022-10-23T12:18:17.811Z,20.56
2022-10-23T12:23:48.084Z,20.48
2022-10-23T12:29:21.694Z,20.33
2022-10-23T12:34:56.853Z,19.97
2022-10-23T12:40:01.971Z,19.73
2022-10-23T12:45:20.668Z,19.67
2022-10-23T12:50:27.850Z,19.66
2022-10-23T12:55:45.705Z,19.64
2022-10-23T13:00:56.624Z,19.61
2022-10-23T13:06:04.448Z,19.56
2022-10-23T13:11:16.416Z,19.65
2022-10-23T13:16:22.303Z,19.67
2022-10-23T13:21:33.195Z,19.76
2022-10-23T13:26:49.095Z,20.01
2022-10-23T13:31:51.506Z,20.11
2022-10-23T13:37:21.177Z,20.12
2022-10-23T13:42:22.992Z,20.17
2022-10-23T13:47:24.990Z,20.26
2022-10-23T13:52:26.839Z,20.29
2022-10-23T13:57:28.811Z,20.18
2022-10-23T14:02:30.674Z,20.04
2022-10-23T14:07:32.693Z,19.97
2022-10-23T14:12:44.824Z,19.87
2022-10-23T14:17:47.621Z,19.74
2022-10-23T14:22:49.880Z,19.56
2022-10-23T14:27:52.021Z,19.42
2022-10-23T14:32:53.917Z,19.35
2022-10-23T14:37:55.651Z,19.28
2022-10-23T14:42:57.413Z,19.05
2022-10-23T14:48:01.230Z,18.69
2022-10-23T14:53:03.670Z,18.41
2022-10-23T14:58:20.293Z,18.23
2022-10-23T15:03:32.804Z,18.05
2022-10-23T15:08:43.813Z,17.90
2022-10-23T15:13:45.699Z,17.76
2022-10-23T15:18:48.016Z,17.55
2022-10-23T15:23:50.344Z,17.37
2022-10-23T15:28:57.131Z,17.17
2022-10-23T15:34:00.055Z,16.96
2022-10-23T15:39:03.122Z,16.72
2022-10-23T15:44:06.378Z,16.43
2022-10-23T15:49:08.722Z,16.03
2022-10-23T15:54:16.587Z,15.67
2022-10-23T15:59:20.993Z,15.35
2022-10-23T16:04:23.366Z,15.04
2022-10-23T16:09:25.515Z,14.74
2022-10-23T16:14:27.401Z,14.44
2022-10-23T16:19:29.551Z,14.12
2022-10-23T16:24:32.142Z,13.81
2022-10-23T16:29:34.173Z,13.52
2022-10-23T16:34:36.060Z,13.29
2022-10-23T16:39:38.916Z,13.19
2022-10-23T16:44:59.412Z,13.13
2022-10-23T16:50:01.331Z,13.08
2022-10-23T16:55:03.354Z,13.00
2022-10-23T17:00:09.593Z,12.85
2022-10-23T17:05:11.538Z,12.73
2022-10-23T17:10:13.726Z,12.67
2022-10-23T17:15:16.913Z,12.61
2022-10-23T17:20:18.980Z,12.56
2022-10-23T17:25:20.792Z,12.52
2022-10-23T17:30:24.405Z,12.49
2022-10-23T17:35:26.346Z,12.47
2022-10-23T17:40:41.737Z,12.44
2022-10-23T17:45:48.082Z,12.45
2022-10-23T17:50:49.866Z,12.44
2022-10-23T17:55:51.780Z,12.44
2022-10-23T18:00:53.702Z,12.42
2022-10-23T18:05:55.794Z,12.42
2022-10-23T18:10:57.829Z,12.42
2022-10-23T18:16:04.394Z,12.37
2022-10-23T18:21:07.491Z,12.26
2022-10-23T18:26:25.625Z,12.13
2022-10-23T18:31:30.460Z,11.95
2022-10-23T18:36:35.767Z,11.80
2022-10-23T18:41:40.729Z,11.66
2022-10-23T18:46:43.188Z,11.53
2022-10-23T18:51:45.501Z,11.37
2022-10-23T18:56:48.152Z,11.21
2022-10-23T19:02:05.508Z,11.08
2022-10-23T19:07:07.895Z,10.94
2022-10-23T19:12:10.930Z,10.78
2022-10-23T19:17:23.469Z,10.61
2022-10-23T19:22:25.600Z,10.47
2022-10-23T19:27:28.483Z,10.32
2022-10-23T19:32:30.613Z,10.23
2022-10-23T19:37:32.597Z,10.13
2022-10-23T19:42:38.269Z,10.01
2022-10-23T19:47:41.882Z,9.91
2022-10-23T19:52:44.170Z,9.86
2022-10-23T19:57:46.494Z,9.90
2022-10-23T20:02:50.243Z,9.86
2022-10-23T20:08:11.308Z,9.79
2022-10-23T20:13:19.706Z,9.71
2022-10-23T20:18:26.123Z,9.71
2022-10-23T20:23:28.303Z,9.75
2022-10-23T20:28:31.531Z,9.77
2022-10-23T20:33:33.419Z,9.80
2022-10-23T20:38:36.145Z,9.76
2022-10-23T20:43:38.474Z,9.67
2022-10-23T20:48:43.003Z,9.56
2022-10-23T20:53:45.650Z,9.38
2022-10-23T20:58:47.666Z,9.27
2022-10-23T21:03:51.858Z,9.14
2022-10-23T21:08:59.448Z,9.09
2022-10-23T21:14:03.974Z,9.02
2022-10-23T21:19:07.059Z,9.09
2022-10-23T21:24:13.366Z,9.17
2022-10-23T21:29:19.853Z,9.04
2022-10-23T21:34:28.539Z,8.83
2022-10-23T21:39:31.109Z,8.71
2022-10-23T21:44:33.087Z,8.70
2022-10-23T21:49:35.174Z,8.79
2022-10-23T21:54:38.047Z,8.90
2022-10-23T21:59:40.174Z,8.96
2022-10-23T22:04:42.467Z,8.93
2022-10-23T22:09:48.040Z,8.96
2022-10-23T22:14:50.171Z,9.02
2022-10-23T22:19:52.099Z,8.99
2022-10-23T22:24:54.068Z,9.00
2022-10-23T22:29:58.540Z,9.07
2022-10-23T22:35:00.638Z,9.17
2022-10-23T22:40:02.884Z,9.29
2022-10-23T22:45:05.418Z,9.45
2022-10-23T22:50:07.770Z,9.58
2022-10-23T22:55:10.704Z,9.66
2022-10-23T23:00:13.470Z,9.74
2022-10-23T23:05:15.346Z,9.83
2022-10-23T23:10:17.283Z,9.92
2022-10-23T23:15:19.231Z,10.02
2022-10-23T23:20:21.322Z,10.07
2022-10-23T23:25:43.248Z,10.03
2022-10-23T23:31:06.558Z,10.06
2022-10-23T23:36:11.150Z,10.09
2022-10-23T23:41:15.575Z,10.09
2022-10-23T23:46:20.847Z,10.09
2022-10-23T23:51:25.089Z,10.09
2022-10-23T23:56:28.081Z,10.07
